createdAt,value
2022-09-03T00:00:16.404Z,17.39
2022-09-03T00:04:26.771Z,17.35
2022-09-03T00:08:50.818Z,17.43
2022-09-03T00:12:57.673Z,17.38
2022-09-03T00:17:11.265Z,17.30
2022-09-03T00:21:25.091Z,17.30
2022-09-03T00:25:39.797Z,17.27
2022-09-03T00:30:00.209Z,17.33
2022-09-03T00:34:09.141Z,17.34
2022-09-03T00:38:10.750Z,17.43
2022-09-03T00:42:53.743Z,17.43
2022-09-03T00:47:02.046Z,17.46
2022-09-03T00:51:18.850Z,17.41
2022-09-03T00:55:48.260Z,17.45
2022-09-03T00:59:56.941Z,17.37
2022-09-03T01:04:08.158Z,17.22
2022-09-03T01:08:33.292Z,17.25
2022-09-03T01:12:52.220Z,17.30
2022-09-03T01:17:09.402Z,17.36
2022-09-03T01:21:36.601Z,17.25
2022-09-03T01:25:58.084Z,17.15
2022-09-03T01:30:10.938Z,17.20
2022-09-03T01:34:26.675Z,17.15
2022-09-03T01:38:47.918Z,17.10
2022-09-03T01:43:20.526Z,17.06
2022-09-03T01:47:32.009Z,17.07
2022-09-03T01:51:33.998Z,16.99
2022-09-03T01:56:13.288Z,16.88
2022-09-03T02:00:22.973Z,16.76
2022-09-03T02:04:26.585Z,16.62
2022-09-03T02:08:28.314Z,16.53
2022-09-03T02:12:33.689Z,16.54
2022-09-03T02:16:35.384Z,16.64
2022-09-03T02:20:37.531Z,16.77
2022-09-03T02:24:39.347Z,16.76
2022-09-03T02:28:41.057Z,16.63
2022-09-03T02:32:42.555Z,16.65
2022-09-03T02:36:46.761Z,16.59
2022-09-03T02:40:48.688Z,16.64
2022-09-03T02:45:23.450Z,16.62
2022-09-03T02:49:24.933Z,16.53
2022-09-03T02:53:28.869Z,16.44
2022-09-03T02:57:30.714Z,16.38
2022-09-03T03:01:32.561Z,16.38
2022-09-03T03:05:46.715Z,16.38
2022-09-03T03:09:48.205Z,16.33
2022-09-03T03:13:49.596Z,16.23
2022-09-03T03:17:51.148Z,16.21
2022-09-03T03:21:52.584Z,16.22
2022-09-03T03:25:54.018Z,16.12
2022-09-03T03:29:55.742Z,16.10
2022-09-03T03:33:59.814Z,16.12
2022-09-03T03:38:01.360Z,15.95
2022-09-03T03:42:03.094Z,15.99
2022-09-03T03:46:05.397Z,16.07
2022-09-03T03:50:07.026Z,16.14
2022-09-03T03:54:08.954Z,16.24
2022-09-03T03:58:10.378Z,16.27
2022-09-03T04:02:13.095Z,16.32
2022-09-03T04:06:18.391Z,16.23
2022-09-03T04:10:19.950Z,16.22
2022-09-03T04:14:22.234Z,16.23
2022-09-03T04:18:24.043Z,16.27
2022-09-03T04:22:25.583Z,16.33
2022-09-03T04:26:32.426Z,16.21
2022-09-03T04:30:33.927Z,16.18
2022-09-03T04:34:35.618Z,16.15
2022-09-03T04:38:39.370Z,16.15
2022-09-03T04:42:40.885Z,16.16
2022-09-03T04:46:42.624Z,16.13
2022-09-03T04:50:44.051Z,16.17
2022-09-03T04:54:45.443Z,16.13
2022-09-03T04:58:50.975Z,16.14
2022-09-03T05:02:52.949Z,16.21
2022-09-03T05:06:54.441Z,16.27
2022-09-03T05:11:00.637Z,16.32
2022-09-03T05:15:02.493Z,16.32
2022-09-03T05:19:08.332Z,16.22
2022-09-03T05:23:10.254Z,16.25
2022-09-03T05:27:11.714Z,16.28
2022-09-03T05:31:18.742Z,16.32
2022-09-03T05:35:25.376Z,16.37
2022-09-03T05:39:27.464Z,16.45
2022-09-03T05:43:29.834Z,16.53
2022-09-03T05:47:31.276Z,16.45
2022-09-03T05:51:34.308Z,16.48
2022-09-03T05:55:36.100Z,16.47
2022-09-03T05:59:37.508Z,16.52
2022-09-03T06:03:40.056Z,16.55
2022-09-03T06:07:42.817Z,16.60
2022-09-03T06:11:46.170Z,16.59
2022-09-03T06:15:47.701Z,16.64
2022-09-03T06:19:50.100Z,16.70
2022-09-03T06:23:56.624Z,16.76
2022-09-03T06:28:02.208Z,16.85
2022-09-03T06:32:05.056Z,16.96
2022-09-03T06:36:10.668Z,17.09
2022-09-03T06:40:20.801Z,17.30
2022-09-03T06:44:23.825Z,17.49
2022-09-03T06:48:31.690Z,17.83
2022-09-03T06:52:34.436Z,18.12
2022-09-03T06:56:40.176Z,18.43
2022-09-03T07:00:43.119Z,18.69
2022-09-03T07:04:44.948Z,18.88
2022-09-03T07:08:51.233Z,19.06
2022-09-03T07:12:55.910Z,19.18
2022-09-03T07:16:57.337Z,19.26
2022-09-03T07:21:05.246Z,19.43
2022-09-03T07:25:07.351Z,19.58
2022-09-03T07:29:08.825Z,20.03
2022-09-03T07:33:10.617Z,20.29
2022-09-03T07:37:12.042Z,20.36
2022-09-03T07:41:21.441Z,20.55
2022-09-03T07:45:35.972Z,20.76
2022-09-03T07:49:40.526Z,20.81
2022-09-03T07:53:42.427Z,20.83
2022-09-03T07:57:46.112Z,20.93
2022-09-03T08:01:54.033Z,20.86
2022-09-03T08:06:01.846Z,20.91
2022-09-03T08:10:09.678Z,21.01
2022-09-03T08:18:40.837Z,21.40
2022-09-03T08:22:51.467Z,21.87
2022-09-03T08:26:55.921Z,22.05
2022-09-03T08:31:00.448Z,22.08
2022-09-03T08:35:02.114Z,22.10
2022-09-03T08:39:09.543Z,21.97
2022-09-03T08:43:21.927Z,21.98
2022-09-03T08:47:41.991Z,21.96
2022-09-03T08:51:51.568Z,21.94
2022-09-03T08:56:02.878Z,22.08
2022-09-03T09:00:06.561Z,22.38
2022-09-03T09:04:54.009Z,22.64
2022-09-03T09:09:16.878Z,22.54
2022-09-03T09:13:48.847Z,22.33
2022-09-03T09:18:12.269Z,22.35
2022-09-03T09:22:31.146Z,22.42
2022-09-03T09:26:33.947Z,22.48
2022-09-03T09:30:36.007Z,22.42
2022-09-03T09:34:41.212Z,22.88
2022-09-03T09:38:43.836Z,23.38
2022-09-03T09:42:45.393Z,24.04
2022-09-03T09:46:50.258Z,24.14
2022-09-03T09:51:11.714Z,24.00
2022-09-03T09:55:19.433Z,23.99
2022-09-03T09:59:21.134Z,24.03
2022-09-03T10:03:22.518Z,24.14
2022-09-03T10:07:32.901Z,24.39
2022-09-03T10:11:39.785Z,24.46
2022-09-03T10:16:00.240Z,24.51
2022-09-03T10:20:31.328Z,24.65
2022-09-03T10:24:48.690Z,24.57
2022-09-03T10:28:56.075Z,24.56
2022-09-03T10:33:15.649Z,24.75
2022-09-03T10:37:25.933Z,25.19
2022-09-03T10:41:47.511Z,25.33
2022-09-03T10:45:58.748Z,25.18
2022-09-03T10:50:16.209Z,24.82
2022-09-03T10:54:17.840Z,24.58
2022-09-03T10:58:38.081Z,24.75
2022-09-03T11:03:28.597Z,25.20
2022-09-03T11:07:50.518Z,25.70
2022-09-03T11:11:55.662Z,25.58
2022-09-03T11:16:20.405Z,25.25
2022-09-03T11:20:25.417Z,24.99
2022-09-03T11:24:33.085Z,24.82
2022-09-03T11:28:59.871Z,24.58
2022-09-03T11:33:09.474Z,24.41
2022-09-03T11:37:22.040Z,24.43
2022-09-03T11:41:36.095Z,24.47
2022-09-03T11:45:39.423Z,24.71
2022-09-03T11:49:47.470Z,24.80
2022-09-03T11:53:59.402Z,24.70
2022-09-03T11:58:25.224Z,24.52
2022-09-03T12:02:30.891Z,24.29
2022-09-03T12:06:43.243Z,24.19
2022-09-03T12:10:59.319Z,24.17
2022-09-03T12:15:19.550Z,24.07
2022-09-03T12:19:32.592Z,23.89
2022-09-03T12:23:45.963Z,23.86
2022-09-03T12:27:49.619Z,23.71
2022-09-03T12:31:52.542Z,23.63
2022-09-03T12:36:02.233Z,23.48
2022-09-03T12:40:07.409Z,23.30
2022-09-03T12:44:12.471Z,23.15
2022-09-03T12:48:19.715Z,23.02
2022-09-03T12:52:32.941Z,22.85
2022-09-03T12:56:35.364Z,22.69
2022-09-03T13:00:43.385Z,22.41
2022-09-03T13:04:46.241Z,22.18
2022-09-03T13:08:51.512Z,21.79
2022-09-03T13:12:59.762Z,21.48
2022-09-03T13:17:35.705Z,21.24
2022-09-03T13:22:14.881Z,21.08
2022-09-03T13:26:42.800Z,20.89
2022-09-03T13:31:10.826Z,20.76
2022-09-03T13:35:23.532Z,20.77
2022-09-03T13:39:52.558Z,20.78
2022-09-03T13:44:03.315Z,20.91
2022-09-03T13:48:28.684Z,21.09
2022-09-03T13:52:57.571Z,21.30
2022-09-03T13:57:17.208Z,21.52
2022-09-03T14:01:26.076Z,21.73
2022-09-03T14:05:50.890Z,21.83
2022-09-03T14:10:23.912Z,21.99
2022-09-03T14:14:31.461Z,22.10
2022-09-03T14:18:51.685Z,22.15
2022-09-03T14:23:07.498Z,22.20
2022-09-03T14:27:09.335Z,22.26
2022-09-03T14:31:19.320Z,22.46
2022-09-03T14:35:29.519Z,22.64
2022-09-03T14:39:53.203Z,22.44
2022-09-03T14:44:20.756Z,22.39
2022-09-03T14:48:50.169Z,22.41
2022-09-03T14:53:13.080Z,22.42
2022-09-03T14:57:31.697Z,22.43
2022-09-03T15:01:38.934Z,22.54
2022-09-03T15:06:05.905Z,22.64
2022-09-03T15:10:28.826Z,22.73
2022-09-03T15:14:40.108Z,22.86
2022-09-03T15:19:02.978Z,22.83
2022-09-03T15:23:24.287Z,22.94
2022-09-03T15:27:40.910Z,22.88
2022-09-03T15:32:06.886Z,22.59
2022-09-03T15:36:13.450Z,22.70
2022-09-03T15:40:46.178Z,22.81
2022-09-03T15:44:52.536Z,23.11
2022-09-03T15:49:02.716Z,22.95
2022-09-03T15:53:04.850Z,22.84
2022-09-03T15:57:26.677Z,22.66
2022-09-03T16:01:59.860Z,22.59
2022-09-03T16:06:07.093Z,22.55
2022-09-03T16:10:25.975Z,22.57
2022-09-03T16:14:35.682Z,23.05
2022-09-03T16:18:46.720Z,23.73
2022-09-03T16:23:05.639Z,24.28
2022-09-03T16:27:17.779Z,24.65
2022-09-03T16:31:33.030Z,24.23
2022-09-03T16:35:46.432Z,23.77
2022-09-03T16:40:06.722Z,23.21
2022-09-03T16:44:45.973Z,22.81
2022-09-03T16:49:11.731Z,22.57
2022-09-03T16:53:32.325Z,22.33
2022-09-03T16:57:45.850Z,22.11
2022-09-03T17:02:40.614Z,21.94
2022-09-03T17:07:08.723Z,21.79
2022-09-03T17:11:40.459Z,21.69
2022-09-03T17:15:48.136Z,21.54
2022-09-03T17:20:11.533Z,21.37
2022-09-03T17:24:36.079Z,21.28
2022-09-03T17:28:49.555Z,21.07
2022-09-03T17:33:06.633Z,21.01
2022-09-03T17:37:24.377Z,21.00
2022-09-03T17:41:41.129Z,20.98
2022-09-03T17:45:48.274Z,20.94
2022-09-03T17:49:58.245Z,20.91
2022-09-03T17:54:18.665Z,20.88
2022-09-03T17:58:32.626Z,20.70
2022-09-03T18:03:06.489Z,20.63
2022-09-03T18:07:29.645Z,20.49
2022-09-03T18:11:39.063Z,20.47
2022-09-03T18:15:52.632Z,20.45
2022-09-03T18:20:20.422Z,20.38
2022-09-03T18:25:02.429Z,20.36
2022-09-03T18:29:54.426Z,20.26
2022-09-03T18:34:14.636Z,20.18
2022-09-03T18:38:51.495Z,20.08
2022-09-03T18:43:35.945Z,20.04
2022-09-03T18:48:20.264Z,20.00
2022-09-03T18:52:56.068Z,19.91
2022-09-03T18:57:17.197Z,19.81
2022-09-03T19:01:56.695Z,19.77
2022-09-03T19:06:37.069Z,19.70
2022-09-03T19:11:03.396Z,19.60
2022-09-03T19:15:38.980Z,19.51
2022-09-03T19:20:31.233Z,19.42
2022-09-03T19:24:51.713Z,19.28
2022-09-03T19:29:21.412Z,19.17
2022-09-03T19:33:56.801Z,19.14
2022-09-03T19:38:29.657Z,19.14
2022-09-03T19:43:19.279Z,19.08
2022-09-03T19:48:03.063Z,18.87
2022-09-03T19:52:44.829Z,18.79
2022-09-03T19:57:06.798Z,18.67
2022-09-03T20:01:28.468Z,18.57
2022-09-03T20:05:48.914Z,18.35
2022-09-03T20:10:12.190Z,18.22
2022-09-03T20:14:16.029Z,18.03
2022-09-03T20:18:30.336Z,17.83
2022-09-03T20:22:36.664Z,17.80
2022-09-03T20:27:04.121Z,17.77
2022-09-03T20:31:40.089Z,17.69
2022-09-03T20:35:56.650Z,17.65
2022-09-03T20:40:08.138Z,17.60
2022-09-03T20:44:37.899Z,17.52
2022-09-03T20:48:50.542Z,17.43
2022-09-03T20:53:02.064Z,17.40
2022-09-03T20:57:18.285Z,17.28
2022-09-03T21:01:57.263Z,17.23
2022-09-03T21:06:15.855Z,17.15
2022-09-03T21:10:42.177Z,17.09
2022-09-03T21:14:51.576Z,16.97
2022-09-03T21:19:03.685Z,16.90
2022-09-03T21:23:21.244Z,16.83
2022-09-03T21:27:49.988Z,16.81
2022-09-03T21:32:14.477Z,16.77
2022-09-03T21:36:36.706Z,16.73
2022-09-03T21:40:46.772Z,16.68
2022-09-03T21:45:08.108Z,16.60
2022-09-03T21:49:15.384Z,16.50
2022-09-03T21:53:47.293Z,16.47
2022-09-03T21:58:00.234Z,16.42
2022-09-03T22:02:16.683Z,16.42
2022-09-03T22:06:26.336Z,16.37
2022-09-03T22:10:39.351Z,16.33
2022-09-03T22:14:51.426Z,16.29
2022-09-03T22:18:54.244Z,16.28
2022-09-03T22:23:03.745Z,16.25
2022-09-03T22:27:38.708Z,16.15
2022-09-03T22:32:25.159Z,16.09
2022-09-03T22:36:37.389Z,16.07
2022-09-03T22:40:57.938Z,16.05
2022-09-03T22:44:59.429Z,15.96
2022-09-03T22:49:13.177Z,15.89
2022-09-03T22:53:51.582Z,15.87
2022-09-03T22:58:02.589Z,15.85
2022-09-03T23:02:20.829Z,15.78
2022-09-03T23:06:41.482Z,15.79
2022-09-03T23:10:54.024Z,15.71
2022-09-03T23:15:00.851Z,15.67
2022-09-03T23:23:29.861Z,15.67
2022-09-03T23:28:02.993Z,15.66
2022-09-03T23:36:57.923Z,15.63
2022-09-03T23:41:04.032Z,15.65
2022-09-03T23:45:33.584Z,15.67
2022-09-03T23:49:43.738Z,15.62
2022-09-03T23:54:00.908Z,15.56
2022-09-03T23:58:12.973Z,15.54
